ADDS METAR Data INFO
IDs: Format: Raw Decoded Include TAF

Data at: 0937 UTC 25 Jun 2018

KESN 250936Z AUTO 35005KT 10SM CLR 23/21 A2999 RMK AO2 T02250206
KESN 250921Z AUTO 35003KT 10SM CLR 23/21 A2998 RMK AO2 T02260210
KESN 250901Z AUTO 31006KT 10SM CLR 23/22 A2997 RMK AO2 T02280215
KESN 250841Z AUTO 30004KT 10SM CLR 23/22 A2996 RMK AO2 T02280216
KESN 250821Z AUTO 30004KT 10SM CLR 23/22 A2995 RMK AO2 T02270216
KESN 250801Z AUTO 00000KT 10SM CLR 22/21 A2995 RMK AO2 T02160205
KESN 250741Z AUTO 00000KT 10SM CLR 21/20 A2994 RMK AO2 T02130203
KESN 250721Z AUTO 00000KT 10SM CLR 22/20 A2994 RMK AO2 T02160204
KESN 250701Z AUTO 00000KT 10SM CLR 22/21 A2994 RMK AO2 T02200207
KESN 250641Z AUTO 00000KT 10SM CLR 22/21 A2994 RMK AO2 T02200208
KESN 250621Z AUTO 00000KT 10SM CLR 22/21 A2994 RMK AO2 T02230211
KESN 250601Z AUTO 00000KT 10SM CLR 22/21 A2994 RMK AO2 T02240210
KESN 250541Z AUTO 00000KT 10SM CLR 22/21 A2994 RMK AO2 T02240208
KESN 250521Z AUTO 00000KT 10SM CLR 23/21 A2994 RMK AO2 T02280212
KESN 250501Z AUTO 31003KT 10SM CLR 23/21 A2994 RMK AO2 T02310210
KESN 250441Z AUTO 29004KT 10SM CLR 24/21 A2995 RMK AO2 T02400211
KESN 250433Z AUTO 28004KT 10SM CLR 24/21 A2995 RMK AO2 T02410211
KESN 250429Z AUTO 29004KT 10SM CLR 24/21 A2995 RMK AO2 T02410210
KESN 250409Z AUTO 31004KT 10SM SCT120 24/21 A2995 RMK AO2 T02430210
KESN 250349Z AUTO 30004KT 10SM CLR 25/21 A2995 RMK AO2 T02450210
KESN 250329Z AUTO 29004KT 10SM SCT070 SCT120 25/22 A2995 RMK AO2 T02450217
KESN 250309Z AUTO 00000KT 10SM SCT070 SCT090 25/23 A2995 RMK AO2 T02470227
KESN 250249Z AUTO 00000KT 10SM CLR 25/23 A2994 RMK AO2 P0001 T02500231
KESN 250229Z AUTO 24003KT 7SM -RA SCT048 SCT060 SCT075 25/23 A2993 RMK AO2 P0001 T02510231
KESN 250150Z 26003KT 10SM SCT044 SCT050 SCT070 25/23 A2993
KESN 250115Z 00000KT 10SM BKN012 BKN018 BKN042 25/23 A2993
KESN 250045Z 27006KT 10SM BKN150 25/22 A2990
KESN 242346Z 24009KT 10SM BKN150 27/23 A2989
KESN 242250Z 23012KT 10SM SCT120 30/23 A2986
KESN 242145Z 26004KT 10SM -RA SCT060 30/22 A2988
KESN 242045Z 24004KT 10SM SCT080 BKN150 32/20 A2988
KESN 241950Z 26005KT 10SM SCT060 BKN150 32/20 A2987
KESN 241850Z 25006KT 10SM FEW060 SCT150 32/20 A2988
KESN 241750Z 28004KT 10SM SCT120 32/20 A2989
KESN 241650Z 29006KT 10SM BKN120 30/19 A2990
KESN 241550Z 25005KT 10SM BKN120 30/19 A2991
KESN 241450Z 26005KT 10SM BKN120 29/20 A2990
KESN 241350Z 24004KT 10SM SCT120 29/21 A2990
KESN 241250Z 25004KT 10SM SCT120 27/23 A2991
KESN 241150Z 00000KT 10SM SCT120 25/23 A2990
KESN 241050Z 00000KT 10SM SCT120 23/22 A2989
KESN 240948Z 00000KT 10SM SCT120 22/22 A2988
KESN 240936Z AUTO 00000KT 4SM BR CLR 22/21 A2987 RMK AO2 T02180211
KESN 240930Z AUTO 00000KT 3SM BR SCT001 22/21 A2987 RMK AO2 T02170209
KESN 240910Z AUTO 19003KT 1 3/4SM BR BKN001 22/21 A2987 RMK AO2 VIS 1/2V5 T02180210
KESN 240850Z AUTO 00000KT 1/4SM FG OVC001 22/22 A2987 RMK AO2 T02230216
KESN 240810Z AUTO 00000KT 3/4SM BR OVC001 23/22 A2986 RMK AO2 T02270220
KESN 240750Z AUTO 00000KT 1SM BR BKN001 OVC080 23/22 A2986 RMK AO2 T02320224
KESN 240730Z AUTO 00000KT 3/4SM BR OVC001 23/22 A2986 RMK AO2 T02320223
KESN 240709Z AUTO 00000KT 3SM BR OVC001 23/22 A2986 RMK AO2 T02310222
KESN 240650Z AUTO 00000KT 4SM BR OVC001 23/22 A2986 RMK AO2 T02310222
KESN 240630Z AUTO 00000KT 4SM BR BKN001 23/22 A2986 RMK AO2 T02300220
KESN 240609Z AUTO 00000KT 5SM BR CLR 23/22 A2986 RMK AO2 T02290219
KESN 240550Z AUTO 00000KT 5SM BR CLR 23/22 A2986 RMK AO2 T02290219
KESN 240529Z AUTO 00000KT 7SM CLR 24/23 A2987 RMK AO2 T02370226
KESN 240510Z AUTO 00000KT 7SM CLR 24/23 A2986 RMK AO2 T02410226
KESN 240449Z AUTO 00000KT 10SM CLR 24/23 A2986 RMK AO2 T02410226
KESN 240429Z AUTO 21003KT 10SM CLR 24/23 A2986 RMK AO2 T02420226
KESN 240409Z AUTO 19004KT 10SM SCT060 24/23 A2986 RMK AO2 T02420226
KESN 240349Z AUTO 00000KT 10SM SCT070 24/23 A2986 RMK AO2 T02400225
KESN 240329Z AUTO 00000KT 10SM SCT075 SCT080 24/23 A2987 RMK AO2 T02430225
KESN 240249Z AUTO 00000KT 10SM SCT090 24/23 A2986 RMK AO2 T02420226
KESN 240229Z AUTO 00000KT 10SM SCT085 24/23 A2986 RMK AO2 T02440226
KESN 240145Z 00000KT 10SM SCT120 24/23 A2985
KESN 240045Z 00000KT 10SM SCT120 25/23 A2983
KESN 232345Z 31003KT 10SM SCT120 27/23 A2983
KESN 232245Z 00000KT 10SM SCT120 28/22 A2982
KESN 232145Z 27004KT 10SM SCT028 29/22 A2980